Terminal Aerodrome Forecast
Issued by NWS Medford, OR

Home | Current Version | Previous Version | Text Only | Print | Product List | Glossary On
Versions: 1 2 3 4 5 6 7 8 9 10 11 12 13 14
000
FTUS46 KMFR 020543
TAFMFR
TAF
KMFR 020543Z 0206/0306 30006KT P6SM SCT040 BKN200
     FM021100 VRB04KT P6SM FEW030 OVC035
     FM021800 32007KT P6SM BKN040
     FM022000 32012G17KT P6SM SCT040 BKN060
     FM030300 33007KT P6SM FEW040 BKN060=

USA.gov is the U.S. government's official web portal to all federal, state and local government web resources and services.